Time;durP1;ratioP1;P1;durP2;ratioP2;P2;SDS_P1;SDS_P2;PMS_P1;PMS_P2;Temp;Humidity;BMP_temperature;BMP_pressure;BME280_temperature;BME280_humidity;BME280_pressure;Samples;Min_cycle;Max_cycle;Signal;HPM_P1;HPM_P2
2023/12/06 00:04:31;;;;;;;4.25;2.83;;;2.00;99.90;;;;;;20971016;28;20041;-78
2023/12/06 00:14:32;;;;;;;11.70;4.95;;;2.00;99.90;;;;;;20966922;28;20021;-77
2023/12/06 00:24:32;;;;;;;8.60;4.55;;;2.20;99.90;;;;;;20965523;28;20029;-77
2023/12/06 00:34:33;;;;;;;11.23;5.40;;;2.10;99.90;;;;;;20969060;28;20025;-77
2023/12/06 00:44:34;;;;;;;10.17;5.37;;;2.10;99.90;;;;;;20970758;28;20036;-77
2023/12/06 00:54:34;;;;;;;13.63;6.95;;;2.10;99.90;;;;;;20964853;28;20325;-77
2023/12/06 01:04:37;;;;;;;14.63;6.20;;;2.20;99.90;;;;;;20963132;28;20033;-77
2023/12/06 01:14:37;;;;;;;11.70;6.00;;;2.30;99.90;;;;;;20965444;28;20485;-77
2023/12/06 01:24:38;;;;;;;21.17;8.07;;;2.20;99.90;;;;;;20964377;28;20029;-78
2023/12/06 01:34:39;;;;;;;12.73;6.47;;;2.20;99.90;;;;;;20973880;28;20040;-79
2023/12/06 01:44:40;;;;;;;20.30;7.40;;;2.20;99.90;;;;;;20979141;28;20425;-78
2023/12/06 01:54:41;;;;;;;13.33;6.40;;;2.20;99.90;;;;;;20974217;28;20434;-78
2023/12/06 02:04:42;;;;;;;11.77;6.30;;;2.20;99.90;;;;;;20968270;28;20643;-78
2023/12/06 02:14:42;;;;;;;13.82;6.43;;;2.20;99.90;;;;;;20973275;28;20107;-79
2023/12/06 02:24:45;;;;;;;15.02;6.53;;;2.20;99.90;;;;;;20950440;28;20046;-78
2023/12/06 02:34:49;;;;;;;13.90;6.15;;;2.10;99.90;;;;;;20959159;28;20028;-77
2023/12/06 02:44:50;;;;;;;15.00;6.55;;;2.20;99.90;;;;;;20961048;28;20562;-79
2023/12/06 02:54:51;;;;;;;12.48;5.82;;;2.10;99.90;;;;;;20962970;28;20036;-78
2023/12/06 03:04:52;;;;;;;14.30;6.82;;;2.10;99.90;;;;;;20967581;28;20477;-78
2023/12/06 03:14:52;;;;;;;40.40;8.45;;;2.20;99.90;;;;;;20976257;28;20089;-79
2023/12/06 03:24:53;;;;;;;19.60;8.13;;;2.20;99.90;;;;;;20977454;28;20493;-79
2023/12/06 03:34:54;;;;;;;18.83;9.00;;;2.10;99.90;;;;;;20970539;28;20797;-80
2023/12/06 03:44:55;;;;;;;33.90;9.95;;;2.20;99.90;;;;;;20971576;28;20029;-78
2023/12/06 03:54:55;;;;;;;18.42;7.50;;;2.20;99.90;;;;;;20972242;28;20036;-78
2023/12/06 04:04:56;;;;;;;14.95;7.10;;;2.30;99.90;;;;;;20976555;28;20047;-79
2023/12/06 04:14:57;;;;;;;16.33;6.07;;;2.20;99.90;;;;;;21058768;28;20051;-79
2023/12/06 04:24:57;;;;;;;15.10;6.15;;;2.30;99.90;;;;;;21067965;28;20082;-78
2023/12/06 04:34:58;;;;;;;14.10;6.72;;;2.60;99.90;;;;;;21050368;28;20032;-78
2023/12/06 04:44:59;;;;;;;17.15;7.40;;;2.40;99.90;;;;;;21040033;28;20037;-78
2023/12/06 04:55:04;;;;;;;9.40;6.20;;;2.40;99.90;;;;;;21062423;28;20031;-78
2023/12/06 05:05:05;;;;;;;11.48;5.55;;;2.60;99.90;;;;;;21045262;28;20532;-78
2023/12/06 05:15:06;;;;;;;15.93;6.97;;;2.60;99.90;;;;;;21050461;28;20050;-78
2023/12/06 05:25:07;;;;;;;18.10;8.55;;;2.70;99.90;;;;;;21047757;28;20115;-77
2023/12/06 05:35:08;;;;;;;17.02;7.55;;;2.80;99.90;;;;;;21049449;28;20111;-77
2023/12/06 05:45:09;;;;;;;11.88;5.57;;;2.60;99.90;;;;;;21044241;28;20094;-77
2023/12/06 05:55:10;;;;;;;13.68;6.65;;;2.70;99.90;;;;;;21048700;28;20031;-77
2023/12/06 06:05:11;;;;;;;11.73;6.15;;;2.60;99.90;;;;;;21035223;28;20040;-76
2023/12/06 06:15:11;;;;;;;15.15;7.00;;;2.50;99.90;;;;;;21061268;28;20578;-75
2023/12/06 06:25:12;;;;;;;15.43;8.00;;;2.60;99.90;;;;;;21053981;28;20527;-75
2023/12/06 06:35:13;;;;;;;10.77;5.72;;;2.50;99.90;;;;;;21057532;28;20028;-77
2023/12/06 06:45:14;;;;;;;17.23;7.78;;;2.60;99.90;;;;;;21080267;28;20036;-78
2023/12/06 06:55:15;;;;;;;15.75;7.13;;;2.50;99.90;;;;;;21081068;28;20053;-76
2023/12/06 07:05:15;;;;;;;10.63;5.57;;;2.40;99.90;;;;;;21069523;28;20113;-78
2023/12/06 07:15:16;;;;;;;9.63;5.72;;;2.30;99.90;;;;;;21080096;28;20123;-76
2023/12/06 07:25:17;;;;;;;16.52;6.40;;;2.40;99.90;;;;;;21069286;28;20016;-76
2023/12/06 07:35:18;;;;;;;11.35;5.93;;;2.60;99.90;;;;;;21048830;28;20032;-78
2023/12/06 07:45:18;;;;;;;20.80;8.70;;;2.70;99.90;;;;;;21049995;28;20374;-76
2023/12/06 07:55:20;;;;;;;12.63;7.80;;;2.70;99.90;;;;;;21051364;28;20039;-76
2023/12/06 08:05:21;;;;;;;14.35;7.57;;;2.80;99.90;;;;;;21051131;28;20400;-76
2023/12/06 08:15:22;;;;;;;14.60;8.13;;;2.90;99.90;;;;;;21034999;28;20115;-76
2023/12/06 08:25:22;;;;;;;21.20;9.52;;;3.00;99.90;;;;;;21057049;28;20271;-76
2023/12/06 08:35:23;;;;;;;43.47;16.90;;;3.20;99.90;;;;;;21049625;28;20115;-76
2023/12/06 08:45:24;;;;;;;17.17;8.25;;;3.50;99.90;;;;;;21046143;28;20036;-76
2023/12/06 08:55:25;;;;;;;11.38;6.55;;;3.70;99.90;;;;;;21048318;28;20036;-76
2023/12/06 09:05:26;;;;;;;10.10;5.70;;;4.20;99.90;;;;;;21053430;28;20028;-76
2023/12/06 09:15:27;;;;;;;6.75;4.25;;;4.50;99.90;;;;;;21045103;28;20287;-76
2023/12/06 09:25:28;;;;;;;6.00;2.22;;;4.30;99.90;;;;;;21049543;28;20036;-76
2023/12/06 09:35:29;;;;;;;2.20;1.73;;;4.30;99.90;;;;;;21048046;28;20381;-76
2023/12/06 09:45:30;;;;;;;2.67;2.13;;;3.90;99.90;;;;;;21048449;28;20032;-76
2023/12/06 09:55:35;;;;;;;6.70;2.05;;;3.90;99.90;;;;;;21047819;28;20140;-77
2023/12/06 10:05:36;;;;;;;2.75;1.40;;;4.00;99.90;;;;;;21046161;28;20042;-76
2023/12/06 10:15:42;;;;;;;5.00;2.50;;;3.90;99.90;;;;;;21057428;28;20077;-76
2023/12/06 10:25:47;;;;;;;3.13;2.13;;;3.80;99.90;;;;;;21063648;28;20032;-76
2023/12/06 10:35:48;;;;;;;4.63;2.33;;;3.70;99.90;;;;;;21056972;28;20420;-76
2023/12/06 10:45:51;;;;;;;5.53;3.00;;;3.70;99.90;;;;;;21059861;28;20027;-76
2023/12/06 10:55:52;;;;;;;6.68;3.42;;;3.70;99.90;;;;;;21060874;28;20028;-76
2023/12/06 11:05:59;;;;;;;7.35;4.53;;;3.80;99.90;;;;;;21060943;28;20119;-75
2023/12/06 11:16:09;;;;;;;7.25;4.72;;;3.90;99.90;;;;;;21058305;28;20044;-76
2023/12/06 11:26:10;;;;;;;15.63;6.50;;;3.80;99.90;;;;;;21057886;28;20086;-77
2023/12/06 11:36:16;;;;;;;13.93;6.50;;;3.80;99.90;;;;;;21056633;28;20073;-76
2023/12/06 11:46:18;;;;;;;16.25;6.60;;;3.80;99.90;;;;;;21051727;28;20036;-76
2023/12/06 11:56:23;;;;;;;14.18;6.97;;;4.00;99.90;;;;;;21056940;28;20115;-75
2023/12/06 12:06:27;;;;;;;11.55;6.80;;;4.00;99.90;;;;;;21054723;28;20393;-76
2023/12/06 12:16:27;;;;;;;11.90;7.20;;;4.00;99.90;;;;;;21058100;28;20032;-76
2023/12/06 12:26:30;;;;;;;11.40;6.72;;;4.00;99.90;;;;;;21060330;28;20035;-77
2023/12/06 12:36:31;;;;;;;11.60;7.40;;;4.10;99.90;;;;;;21054715;28;20484;-76
2023/12/06 12:46:35;;;;;;;17.00;7.45;;;4.20;99.90;;;;;;21052316;28;20020;-76
2023/12/06 12:56:38;;;;;;;13.15;7.78;;;4.20;99.90;;;;;;21037372;28;20032;-75
2023/12/06 13:06:42;;;;;;;14.35;7.45;;;4.10;99.90;;;;;;21055525;28;20020;-75
2023/12/06 13:16:42;;;;;;;16.20;7.40;;;4.10;99.90;;;;;;21033094;28;20035;-77
2023/12/06 13:26:43;;;;;;;14.52;7.80;;;4.10;99.90;;;;;;21051488;28;20028;-77
2023/12/06 13:36:44;;;;;;;12.13;6.50;;;4.10;99.90;;;;;;21031493;28;20507;-76
2023/12/06 13:46:44;;;;;;;14.55;7.72;;;4.10;99.90;;;;;;21046626;28;20024;-75
2023/12/06 13:56:45;;;;;;;17.60;8.68;;;4.20;99.90;;;;;;21050761;28;20115;-76
2023/12/06 14:06:46;;;;;;;14.85;7.43;;;4.20;99.90;;;;;;21048883;28;20111;-77
2023/12/06 14:16:47;;;;;;;14.63;8.35;;;4.10;99.90;;;;;;21050150;28;20125;-76
2023/12/06 14:26:47;;;;;;;23.42;10.77;;;4.10;99.90;;;;;;21050407;28;20027;-77
2023/12/06 14:36:48;;;;;;;14.93;8.25;;;4.10;99.90;;;;;;21047924;28;20081;-77
2023/12/06 14:46:49;;;;;;;20.08;11.63;;;4.00;99.90;;;;;;21047329;28;20016;-76
2023/12/06 14:56:53;;;;;;;18.88;8.30;;;4.00;99.90;;;;;;21051564;28;20034;-77
2023/12/06 15:06:55;;;;;;;9.05;5.50;;;3.90;99.90;;;;;;21064395;28;20036;-77
2023/12/06 15:16:56;;;;;;;7.00;4.30;;;3.80;99.90;;;;;;21059756;28;20416;-76
2023/12/06 15:26:56;;;;;;;8.40;3.90;;;3.70;99.90;;;;;;21059652;28;20046;-77
2023/12/06 15:37:00;;;;;;;5.68;3.47;;;3.60;99.90;;;;;;21062910;28;20282;-76
2023/12/06 15:47:00;;;;;;;6.35;3.50;;;3.40;99.90;;;;;;21062172;28;20054;-77
2023/12/06 15:57:01;;;;;;;6.35;3.63;;;3.00;99.90;;;;;;21056367;28;20424;-74
2023/12/06 16:07:03;;;;;;;4.75;3.35;;;3.10;99.90;;;;;;21056503;28;20039;-78
2023/12/06 16:17:04;;;;;;;6.93;4.18;;;3.00;99.90;;;;;;21061273;28;20032;-77
2023/12/06 16:27:04;;;;;;;10.10;5.35;;;3.10;99.90;;;;;;21053987;28;20484;-77
2023/12/06 16:37:05;;;;;;;17.42;7.32;;;3.00;99.90;;;;;;21061581;28;20020;-77
2023/12/06 16:47:06;;;;;;;12.25;5.90;;;3.10;99.90;;;;;;21143524;28;20450;-78
2023/12/06 16:57:10;;;;;;;14.40;6.65;;;2.70;99.90;;;;;;21119990;28;20119;-77
2023/12/06 17:07:11;;;;;;;16.52;7.78;;;2.50;99.90;;;;;;21131263;28;20112;-77
2023/12/06 17:17:12;;;;;;;18.20;8.13;;;2.50;99.90;;;;;;21138916;28;20491;-77
2023/12/06 17:27:13;;;;;;;19.50;9.38;;;2.40;99.90;;;;;;21137267;28;20097;-78
2023/12/06 17:37:14;;;;;;;19.17;9.73;;;2.40;99.90;;;;;;21142994;28;20031;-77
2023/12/06 17:47:14;;;;;;;14.80;8.73;;;2.50;99.90;;;;;;21133489;28;20073;-76
2023/12/06 17:57:15;;;;;;;20.00;10.32;;;2.50;99.90;;;;;;21097376;28;20442;-76
2023/12/06 18:07:16;;;;;;;16.50;8.63;;;2.50;99.90;;;;;;21107286;28;20030;-77
2023/12/06 18:17:17;;;;;;;25.10;11.43;;;2.40;99.90;;;;;;21075693;28;20033;-78
2023/12/06 18:27:17;;;;;;;22.17;9.10;;;2.50;99.90;;;;;;21114623;28;20024;-77
2023/12/06 18:37:18;;;;;;;25.48;10.60;;;2.40;99.90;;;;;;21103511;28;20588;-76
2023/12/06 18:47:19;;;;;;;26.52;10.80;;;2.40;99.90;;;;;;21088597;28;20446;-76
2023/12/06 18:57:20;;;;;;;24.13;12.73;;;2.50;99.90;;;;;;21119913;28;20062;-76
2023/12/06 19:07:20;;;;;;;20.95;11.20;;;2.70;99.90;;;;;;21119049;28;20035;-76
2023/12/06 19:17:21;;;;;;;26.23;10.50;;;2.50;99.90;;;;;;21068525;28;20119;-76
2023/12/06 19:27:22;;;;;;;21.10;10.57;;;2.60;99.90;;;;;;21104953;28;20054;-76
2023/12/06 19:37:24;;;;;;;21.02;10.75;;;2.50;99.90;;;;;;21099215;28;20076;-77
2023/12/06 19:47:25;;;;;;;21.55;11.45;;;2.50;99.90;;;;;;21092795;28;20384;-75
2023/12/06 19:57:25;;;;;;;22.13;11.77;;;2.60;99.90;;;;;;21085003;28;20124;-75
2023/12/06 20:07:29;;;;;;;22.35;10.80;;;2.60;99.90;;;;;;21078304;28;20024;-76
2023/12/06 20:17:30;;;;;;;25.80;11.25;;;2.60;99.90;;;;;;21066819;28;20052;-76
2023/12/06 20:27:31;;;;;;;23.08;12.00;;;2.50;99.90;;;;;;21110799;28;20420;-76
2023/12/06 20:37:32;;;;;;;22.10;11.80;;;2.60;99.90;;;;;;21112623;28;20043;-76
2023/12/06 20:47:33;;;;;;;24.60;12.00;;;2.60;99.90;;;;;;21128568;28;20035;-76
2023/12/06 20:57:34;;;;;;;22.55;12.65;;;2.70;99.90;;;;;;21128382;28;20035;-76
2023/12/06 21:07:35;;;;;;;25.90;13.20;;;2.60;99.90;;;;;;21126621;28;20032;-76
2023/12/06 21:17:36;;;;;;;27.48;14.25;;;2.60;99.90;;;;;;21130674;28;20028;-76
2023/12/06 21:27:37;;;;;;;48.10;16.08;;;2.70;99.90;;;;;;21118343;28;20038;-76
2023/12/06 21:37:38;;;;;;;190.63;19.13;;;2.50;99.90;;;;;;21127363;28;20484;-76
2023/12/06 21:47:38;;;;;;;28.25;14.38;;;2.50;99.90;;;;;;21127380;28;20024;-75
2023/12/06 21:57:39;;;;;;;30.23;14.80;;;2.50;99.90;;;;;;21112387;28;20101;-77
2023/12/06 22:07:40;;;;;;;30.83;12.80;;;2.50;99.90;;;;;;21129800;28;20300;-76
2023/12/06 22:17:41;;;;;;;28.48;13.15;;;2.40;99.90;;;;;;21148344;28;20111;-77
2023/12/06 22:27:42;;;;;;;29.05;13.25;;;2.50;99.90;;;;;;21110720;28;20050;-76
2023/12/06 22:37:42;;;;;;;25.73;13.57;;;2.50;99.90;;;;;;21143484;28;20023;-77
2023/12/06 22:47:43;;;;;;;48.75;16.35;;;2.50;99.90;;;;;;21141928;28;20020;-77
2023/12/06 22:57:44;;;;;;;28.42;13.10;;;2.40;99.90;;;;;;21145150;28;20031;-77
2023/12/06 23:07:45;;;;;;;33.75;15.05;;;2.40;99.90;;;;;;21092671;28;20099;-77
2023/12/06 23:17:48;;;;;;;46.00;14.70;;;2.50;99.90;;;;;;21067809;28;20110;-76
2023/12/06 23:27:51;;;;;;;38.63;14.93;;;2.50;99.90;;;;;;21052126;28;20028;-76
2023/12/06 23:37:52;;;;;;;27.38;12.57;;;2.40;99.90;;;;;;21069297;28;20028;-75
2023/12/06 23:47:53;;;;;;;19.60;9.52;;;2.10;99.90;;;;;;21068068;28;20046;-76
2023/12/06 23:57:56;;;;;;;22.65;9.60;;;1.90;99.90;;;;;;21067831;28;20024;-75
